Aérodrome :
LOGIN :

S'inscrire | Disclaimer

   EN    FR    IT 

 










Légende :    VFR   VFR Marginal   IFR   IFR Intensif   IFR Très Intensif
Visi : 
Plafond : 
>= 8 km
>= 3000ft
5 à 8 km
1000 à 3000 ft
1500m à 5 km
500 à 1000 ft
800 à 1500m
200 à 500 ft
< 800m
< 200 ft
Symboles :   Orages  Brouillard  Fortes neiges  Fortes précipitations  Vent > 20 kt
SIGMETs :   Divers  Orages  Givrage  Turbulence  Onde Orograph.  Cendres Volcan.






- Altitude de l'aérodrome : 353 ft
- Code IATA : LIN


LIML - Milano Linate

DERNIER METAR :
  • 230120Z 10005KT 9999 -RA BKN025 10/09 Q1009 NOSIG

METARs EXPIRÉS :
  • 230050Z 11005KT 9999 -RA BKN025 10/09 Q1009 NOSIG
  • 230020Z 09003KT 060V120 9999 -RA BKN020 10/09 Q1009 NOSIG
  • 222350Z 08004KT 9999 -RA BKN020 BKN050 10/09 Q1010 NOSIG
  • 222320Z 11006KT 9999 -RA BKN020 BKN050 10/09 Q1010 NOSIG
  • 222250Z 11006KT 9999 -RA BKN020 BKN060 10/09 Q1010 NOSIG

TAF TAF LIML
Valide du 23 à 00h jusqu'au 24 à 00h UTC


222300Z 2300/2324 11005KT 4000 RA BKN010 OVC025
TEMPO 2310/2316 11015KT



MET'MAP, la Météo Aéronautique d'un coup d'oeil ! - Copyright ORBIFLY Décembre 2007 - Disclaimer

ORBIFLY MET'MAP TEAM :

Programmation & Développement : Alexandra Zaïnal
Conception & Développement : Baudouin d'Aumeries
Co-Programmation & Développement : Marc-Olivier Méhu
Soutien technique & logistique : Manuel Goepfert

Contact : metmap@orbifly.com




SOURCES & CREDITS :

   NOAA